Time;durP1;ratioP1;P1;durP2;ratioP2;P2;SDS_P1;SDS_P2;PMS_P1;PMS_P2;Temp;Humidity;BMP_temperature;BMP_pressure;BME280_temperature;BME280_humidity;BME280_pressure;Samples;Min_cycle;Max_cycle;Signal;HPM_P1;HPM_P2
2023/12/30 00:00:57;;;;;;;2.20;1.47;;;;;7.00;93872.00;;;;7397603;19;20138;-77
2023/12/30 00:03:32;;;;;;;3.47;1.70;;;;;7.00;93873.00;;;;7396154;19;20148;-75
2023/12/30 00:06:03;;;;;;;4.30;1.60;;;;;7.20;93870.00;;;;7397518;19;20125;-77
2023/12/30 00:08:40;;;;;;;5.77;1.50;;;;;7.20;93863.00;;;;7396185;19;20128;-76
2023/12/30 00:11:08;;;;;;;1.67;1.20;;;;;7.10;93864.00;;;;7394803;19;20141;-77
2023/12/30 00:13:44;;;;;;;2.13;1.50;;;;;7.20;93878.00;;;;7395379;19;20466;-76
2023/12/30 00:16:13;;;;;;;2.10;1.40;;;;;7.00;93871.00;;;;7397214;19;20125;-77
2023/12/30 00:18:50;;;;;;;2.23;1.30;;;;;7.20;93871.00;;;;7396513;19;20165;-77
2023/12/30 00:21:24;;;;;;;4.60;1.47;;;;;7.10;93861.00;;;;7395847;19;20152;-77
2023/12/30 00:24:04;;;;;;;1.93;1.40;;;;;7.00;93862.00;;;;7396944;19;20458;-77
2023/12/30 00:26:38;;;;;;;1.43;1.00;;;;;6.90;93860.00;;;;7396926;19;20621;-76
2023/12/30 00:29:12;;;;;;;2.67;1.37;;;;;6.90;93869.00;;;;7388970;19;20603;-78
2023/12/30 00:31:46;;;;;;;1.63;1.40;;;;;7.40;93868.00;;;;7388383;19;20137;-78
2023/12/30 00:34:21;;;;;;;2.17;1.30;;;;;7.20;93875.00;;;;7397414;19;20137;-78
2023/12/30 00:36:58;;;;;;;1.53;1.23;;;;;7.10;93873.00;;;;7396672;19;20561;-83
2023/12/30 00:39:28;;;;;;;2.83;1.30;;;;;7.10;93878.00;;;;7396752;19;20121;-78
2023/12/30 00:42:15;;;;;;;2.27;1.30;;;;;6.70;93883.00;;;;7401134;19;20797;-80
2023/12/30 00:44:54;;;;;;;1.37;1.27;;;;;6.70;93881.00;;;;7405151;19;20133;-77
2023/12/30 00:47:31;;;;;;;1.30;1.20;;;;;6.60;93882.00;;;;7404041;19;20157;-75
2023/12/30 00:50:10;;;;;;;2.13;1.43;;;;;6.50;93882.00;;;;7404887;19;20602;-76
2023/12/30 00:52:45;;;;;;;1.80;1.47;;;;;6.40;93884.00;;;;7403084;19;20168;-76
2023/12/30 00:55:19;;;;;;;1.43;1.23;;;;;6.20;93880.00;;;;7402380;19;20125;-77
2023/12/30 00:57:47;;;;;;;1.73;1.40;;;;;6.00;93883.00;;;;7402496;19;20464;-77
2023/12/30 01:00:21;;;;;;;3.73;1.40;;;;;5.80;93889.00;;;;7401745;19;20141;-77
2023/12/30 01:02:58;;;;;;;1.80;1.20;;;;;5.80;93891.00;;;;7403416;19;20132;-75
2023/12/30 01:05:32;;;;;;;1.37;1.10;;;;;5.70;93890.00;;;;7402006;19;20145;-78
2023/12/30 01:08:11;;;;;;;2.93;1.43;;;;;5.70;93898.00;;;;7404197;19;20477;-71
2023/12/30 01:10:45;;;;;;;4.17;1.33;;;;;5.60;93909.00;;;;7403010;19;20120;-72
2023/12/30 01:13:29;;;;;;;3.77;1.47;;;;;5.60;93914.00;;;;7402982;19;20129;-71
2023/12/30 01:16:09;;;;;;;3.17;1.37;;;;;5.60;93902.00;;;;7402447;19;20121;-72
2023/12/30 01:18:45;;;;;;;3.33;1.40;;;;;5.60;93916.00;;;;7396699;19;20141;-71
2023/12/30 01:21:24;;;;;;;1.47;1.37;;;;;5.50;93925.00;;;;7402499;19;20137;-72
2023/12/30 01:24:03;;;;;;;1.97;1.27;;;;;5.50;93905.00;;;;7402442;19;20157;-73
2023/12/30 01:26:41;;;;;;;3.37;1.40;;;;;5.50;93914.00;;;;7404220;19;20597;-75
2023/12/30 01:29:08;;;;;;;2.10;1.23;;;;;5.60;93913.00;;;;7397686;19;20617;-72
2023/12/30 01:31:43;;;;;;;1.40;1.23;;;;;5.60;93928.00;;;;7402714;19;20531;-75
2023/12/30 01:34:10;;;;;;;2.80;1.20;;;;;5.60;93923.00;;;;7402701;19;20616;-73
2023/12/30 01:36:45;;;;;;;1.50;1.20;;;;;5.80;93925.00;;;;7402316;19;20128;-73
2023/12/30 01:39:22;;;;;;;3.70;1.47;;;;;5.60;93922.00;;;;7402145;19;20128;-73
2023/12/30 01:42:02;;;;;;;1.53;1.30;;;;;5.70;93910.00;;;;7400071;19;20180;-74
2023/12/30 01:44:41;;;;;;;1.33;1.13;;;;;5.70;93919.00;;;;7401029;19;20141;-72
2023/12/30 01:47:16;;;;;;;2.17;1.20;;;;;5.70;93907.00;;;;7401502;19;20121;-72
2023/12/30 01:49:57;;;;;;;1.40;1.10;;;;;5.60;93922.00;;;;7400423;19;20132;-74
2023/12/30 01:52:28;;;;;;;2.33;1.07;;;;;5.60;93927.00;;;;7399792;19;20556;-73
2023/12/30 01:55:04;;;;;;;1.80;1.20;;;;;5.60;93928.00;;;;7401907;19;20123;-73
2023/12/30 01:57:38;;;;;;;4.57;1.20;;;;;5.50;93928.00;;;;7401565;19;20145;-73
2023/12/30 02:00:19;;;;;;;1.60;1.30;;;;;5.60;93930.00;;;;7400055;19;20148;-73
2023/12/30 02:02:49;;;;;;;1.77;1.40;;;;;5.60;93942.00;;;;7401630;19;20472;-72
2023/12/30 02:05:23;;;;;;;1.57;1.30;;;;;5.50;93943.00;;;;7400560;19;20178;-72
2023/12/30 02:07:51;;;;;;;2.47;1.23;;;;;5.50;93942.00;;;;7400792;19;20459;-72
2023/12/30 02:10:25;;;;;;;1.70;1.03;;;;;5.50;93944.00;;;;7402556;19;20136;-74
2023/12/30 02:12:53;;;;;;;3.47;1.50;;;;;5.50;93951.00;;;;7399883;19;20462;-73
2023/12/30 02:15:21;;;;;;;2.60;1.27;;;;;5.60;93956.00;;;;7402378;19;20145;-72
2023/12/30 02:17:56;;;;;;;3.23;1.07;;;;;5.50;93950.00;;;;7402847;19;20485;-72
2023/12/30 02:20:24;;;;;;;3.30;1.30;;;;;5.60;93955.00;;;;7401010;19;20133;-71
2023/12/30 02:22:53;;;;;;;2.10;1.30;;;;;5.40;93959.00;;;;7401623;19;20153;-72
2023/12/30 02:25:28;;;;;;;2.67;1.30;;;;;5.70;93955.00;;;;7402067;19;20125;-72
2023/12/30 02:27:55;;;;;;;1.87;1.10;;;;;5.50;93948.00;;;;7396906;19;20176;-72
2023/12/30 02:30:30;;;;;;;2.97;1.20;;;;;5.40;93944.00;;;;7402155;19;20129;-72
2023/12/30 02:33:07;;;;;;;1.13;0.90;;;;;5.50;93955.00;;;;7394594;19;20144;-72
2023/12/30 02:35:43;;;;;;;2.23;1.30;;;;;5.60;93963.00;;;;7399483;19;20616;-75
2023/12/30 02:38:17;;;;;;;1.27;0.93;;;;;5.40;93962.00;;;;7400076;19;20145;-72
2023/12/30 02:40:49;;;;;;;3.90;1.20;;;;;5.50;93961.00;;;;7400749;19;20491;-73
2023/12/30 02:43:35;;;;;;;1.57;1.20;;;;;5.40;93950.00;;;;7396855;19;20524;-72
2023/12/30 02:46:02;;;;;;;2.07;1.20;;;;;5.50;93956.00;;;;7399674;19;20632;-71
2023/12/30 02:48:37;;;;;;;1.40;1.10;;;;;5.70;93960.00;;;;7399534;19;20199;-73
2023/12/30 02:51:05;;;;;;;1.63;1.00;;;;;5.60;93969.00;;;;7399798;19;20140;-71
2023/12/30 02:53:39;;;;;;;1.53;0.90;;;;;5.70;93962.00;;;;7398848;19;20143;-72
2023/12/30 02:56:25;;;;;;;2.83;1.17;;;;;5.70;93958.00;;;;7398479;19;20140;-72
2023/12/30 02:59:01;;;;;;;1.47;1.00;;;;;5.60;93969.00;;;;7398908;19;20144;-73
2023/12/30 03:01:38;;;;;;;1.03;0.90;;;;;5.70;93958.00;;;;7396217;19;20534;-71
2023/12/30 03:04:13;;;;;;;2.33;1.00;;;;;5.60;93962.00;;;;7398725;19;20172;-72
2023/12/30 03:06:41;;;;;;;1.10;0.90;;;;;5.50;93973.00;;;;7400109;19;20140;-72
2023/12/30 03:09:15;;;;;;;1.20;1.10;;;;;5.50;93962.00;;;;7397782;19;20484;-74
2023/12/30 03:11:46;;;;;;;1.70;1.20;;;;;5.40;93964.00;;;;7398812;19;20166;-71
2023/12/30 03:14:20;;;;;;;1.80;0.87;;;;;5.60;93975.00;;;;7397239;19;20145;-71
2023/12/30 03:16:48;;;;;;;2.67;0.90;;;;;5.60;93972.00;;;;7398357;19;20139;-72
2023/12/30 03:19:22;;;;;;;1.77;1.10;;;;;5.60;93975.00;;;;7396959;19;20132;-72
2023/12/30 03:21:56;;;;;;;5.63;1.20;;;;;5.60;93968.00;;;;7398043;19;20137;-72
2023/12/30 03:24:33;;;;;;;1.20;1.10;;;;;5.70;93977.00;;;;7397252;19;20212;-71
2023/12/30 03:27:04;;;;;;;1.80;0.90;;;;;5.70;93973.00;;;;7396802;19;20148;-73
2023/12/30 03:29:43;;;;;;;2.20;1.00;;;;;5.50;93973.00;;;;7399488;19;20129;-73
2023/12/30 03:32:11;;;;;;;2.10;1.10;;;;;5.50;93979.00;;;;7398476;19;20145;-73
2023/12/30 03:34:39;;;;;;;1.53;1.00;;;;;5.60;93978.00;;;;7397192;19;20137;-73
2023/12/30 03:37:13;;;;;;;1.50;0.93;;;;;5.50;93982.00;;;;7393397;19;20161;-74
2023/12/30 03:39:47;;;;;;;2.43;0.97;;;;;5.80;93978.00;;;;7398462;19;20454;-75
2023/12/30 03:42:28;;;;;;;2.80;1.03;;;;;5.60;93966.00;;;;7397765;19;20192;-74
2023/12/30 03:45:04;;;;;;;0.80;0.80;;;;;5.80;93976.00;;;;7396616;19;20600;-74
2023/12/30 03:47:32;;;;;;;1.07;0.97;;;;;5.70;93985.00;;;;7398323;19;20136;-73
2023/12/30 03:50:06;;;;;;;1.80;0.70;;;;;5.60;93983.00;;;;7398595;19;20140;-74
2023/12/30 03:52:34;;;;;;;1.00;0.80;;;;;5.70;93975.00;;;;7398175;19;20625;-73
2023/12/30 03:55:08;;;;;;;1.13;0.80;;;;;5.70;93980.00;;;;7398525;19;20137;-74
2023/12/30 03:57:42;;;;;;;0.83;0.80;;;;;5.70;93989.00;;;;7398589;19;20494;-74
2023/12/30 04:00:11;;;;;;;3.23;0.70;;;;;5.60;93977.00;;;;7396737;19;20172;-73
2023/12/30 04:02:47;;;;;;;0.80;0.70;;;;;5.80;93974.00;;;;7399577;19;20523;-73
2023/12/30 04:05:14;;;;;;;3.20;0.70;;;;;5.70;93974.00;;;;7397319;19;20587;-73
2023/12/30 04:07:50;;;;;;;1.73;0.97;;;;;5.70;93970.00;;;;7398945;19;20195;-73
2023/12/30 04:10:18;;;;;;;0.80;0.63;;;;;5.70;93972.00;;;;7397857;19;20216;-73
2023/12/30 04:12:53;;;;;;;2.17;0.90;;;;;5.60;93975.00;;;;7397237;19;20132;-75
2023/12/30 04:15:28;;;;;;;1.67;1.13;;;;;5.60;93969.00;;;;7406111;19;20121;-74
2023/12/30 04:18:02;;;;;;;2.73;1.13;;;;;5.50;93974.00;;;;7405527;19;20133;-74
2023/12/30 04:20:30;;;;;;;4.00;1.20;;;;;5.50;93973.00;;;;7405047;19;20145;-73
2023/12/30 04:23:04;;;;;;;2.53;1.00;;;;;5.50;93978.00;;;;7405901;19;20674;-75
2023/12/30 04:25:38;;;;;;;2.23;1.30;;;;;5.50;93973.00;;;;7405386;19;20132;-76
2023/12/30 04:28:12;;;;;;;2.00;1.30;;;;;5.50;93983.00;;;;7405034;19;20132;-73
2023/12/30 04:30:40;;;;;;;4.13;1.50;;;;;5.50;93983.00;;;;7404505;19;20502;-73
2023/12/30 04:33:14;;;;;;;4.53;1.70;;;;;5.60;93986.00;;;;7403718;19;20121;-73
2023/12/30 04:36:04;;;;;;;2.87;1.27;;;;;5.50;93992.00;;;;7402388;19;20141;-74
2023/12/30 04:38:50;;;;;;;1.47;1.13;;;;;5.50;93987.00;;;;7403684;19;20152;-77
2023/12/30 04:41:38;;;;;;;1.53;1.10;;;;;5.50;93996.00;;;;7403322;19;20140;-75
2023/12/30 04:44:12;;;;;;;7.73;1.40;;;;;5.60;94000.00;;;;7404752;19;20125;-76
2023/12/30 04:46:46;;;;;;;4.00;1.40;;;;;5.50;93997.00;;;;7402936;19;20668;-76
2023/12/30 04:49:20;;;;;;;1.90;1.27;;;;;5.60;93996.00;;;;7403870;19;20497;-74
2023/12/30 04:51:48;;;;;;;3.60;1.20;;;;;5.60;93994.00;;;;7403489;19;20129;-76
2023/12/30 04:54:22;;;;;;;3.77;1.50;;;;;5.50;93998.00;;;;7403459;19;20144;-74
2023/12/30 04:56:51;;;;;;;3.43;1.33;;;;;5.50;93996.00;;;;7403757;19;20129;-76
2023/12/30 04:59:26;;;;;;;2.17;1.20;;;;;5.40;94004.00;;;;7403845;19;20152;-74
2023/12/30 05:02:05;;;;;;;3.30;1.40;;;;;5.50;94001.00;;;;7403410;19;20136;-74
2023/12/30 05:04:36;;;;;;;7.83;1.50;;;;;5.40;93987.00;;;;7402877;19;20600;-75
2023/12/30 05:07:10;;;;;;;1.20;1.10;;;;;5.40;94002.00;;;;7404461;19;20208;-75
2023/12/30 05:09:38;;;;;;;3.73;1.37;;;;;5.50;93994.00;;;;7402520;19;20620;-76
2023/12/30 05:12:12;;;;;;;3.47;1.10;;;;;5.30;93985.00;;;;7403217;19;20125;-75
2023/12/30 05:14:51;;;;;;;1.20;1.10;;;;;5.40;93980.00;;;;7400877;19;20144;-74
2023/12/30 05:17:18;;;;;;;4.00;1.13;;;;;5.40;93983.00;;;;7402665;19;20476;-75
2023/12/30 05:19:55;;;;;;;2.47;1.17;;;;;5.40;93980.00;;;;7402415;19;20144;-76
2023/12/30 05:22:23;;;;;;;2.10;1.20;;;;;5.40;93996.00;;;;7402970;19;20144;-75
2023/12/30 05:25:00;;;;;;;3.80;1.33;;;;;5.40;93985.00;;;;7402339;19;20451;-75
2023/12/30 05:27:28;;;;;;;4.93;1.50;;;;;5.40;93995.00;;;;7402730;19;20138;-74
2023/12/30 05:30:07;;;;;;;3.03;1.30;;;;;5.40;93996.00;;;;7402358;19;20615;-76
2023/12/30 05:32:36;;;;;;;4.03;1.40;;;;;5.40;94001.00;;;;7403569;19;20129;-76
2023/12/30 05:35:15;;;;;;;3.53;1.17;;;;;5.30;93999.00;;;;7399633;19;20144;-76
2023/12/30 05:37:50;;;;;;;4.33;1.30;;;;;5.30;94001.00;;;;7402633;19;20157;-75
2023/12/30 05:40:26;;;;;;;2.63;1.40;;;;;5.40;93998.00;;;;7400275;19;20600;-76
2023/12/30 05:43:06;;;;;;;3.90;1.17;;;;;5.40;93989.00;;;;7400225;19;20204;-74
2023/12/30 05:45:44;;;;;;;2.73;1.30;;;;;5.40;93996.00;;;;7402832;19;20153;-75
2023/12/30 05:48:15;;;;;;;3.53;1.17;;;;;5.30;94002.00;;;;7401052;19;20138;-75
2023/12/30 05:50:49;;;;;;;2.73;1.30;;;;;5.40;93995.00;;;;7400889;19;20137;-75
2023/12/30 05:53:17;;;;;;;4.70;1.20;;;;;5.30;93989.00;;;;7401791;19;20163;-75
2023/12/30 05:55:45;;;;;;;2.77;1.20;;;;;5.20;93984.00;;;;7392254;19;20125;-74
2023/12/30 05:58:25;;;;;;;3.53;1.30;;;;;5.20;93985.00;;;;7390804;19;20153;-74
2023/12/30 06:00:52;;;;;;;1.37;0.90;;;;;5.20;93985.00;;;;7387910;19;20495;-74
2023/12/30 06:03:26;;;;;;;4.50;1.00;;;;;5.20;93986.00;;;;7389450;19;20150;-73
2023/12/30 06:06:08;;;;;;;2.97;1.20;;;;;5.20;93978.00;;;;7389826;19;20125;-74
2023/12/30 06:08:42;;;;;;;1.70;0.80;;;;;5.10;93998.00;;;;7389291;19;20604;-73
2023/12/30 06:11:24;;;;;;;3.47;1.00;;;;;5.10;93995.00;;;;7391300;19;20128;-74
2023/12/30 06:13:52;;;;;;;1.50;0.80;;;;;5.10;93996.00;;;;7389206;19;20476;-76
2023/12/30 06:16:30;;;;;;;3.60;0.90;;;;;5.00;93988.00;;;;7388469;19;21459;-74
2023/12/30 06:19:01;;;;;;;1.50;0.77;;;;;5.10;93994.00;;;;7389046;19;20140;-75
2023/12/30 06:21:38;;;;;;;5.33;0.87;;;;;5.00;93987.00;;;;7388834;19;20499;-74
2023/12/30 06:24:11;;;;;;;1.53;0.80;;;;;5.10;93992.00;;;;7389227;19;20533;-73
2023/12/30 06:26:45;;;;;;;3.07;0.73;;;;;5.20;93996.00;;;;7389054;19;20185;-74
2023/12/30 06:29:19;;;;;;;1.40;0.50;;;;;5.30;94004.00;;;;7387799;19;20152;-75
2023/12/30 06:31:55;;;;;;;1.40;0.70;;;;;5.30;93997.00;;;;7383975;19;20136;-75
2023/12/30 06:34:23;;;;;;;0.80;0.70;;;;;5.30;93993.00;;;;7382885;19;20652;-73
2023/12/30 06:37:00;;;;;;;0.40;0.40;;;;;5.30;93989.00;;;;7384127;19;20220;-73
2023/12/30 06:39:34;;;;;;;0.50;0.40;;;;;5.10;94015.00;;;;7388032;19;20182;-75
2023/12/30 06:42:21;;;;;;;1.30;0.47;;;;;5.20;94016.00;;;;7385433;19;20212;-74
2023/12/30 06:44:52;;;;;;;0.63;0.43;;;;;5.20;94019.00;;;;7387777;19;20152;-76
2023/12/30 06:47:27;;;;;;;0.67;0.50;;;;;5.20;94017.00;;;;7388170;19;20149;-75
2023/12/30 06:49:55;;;;;;;1.33;0.40;;;;;5.30;94023.00;;;;7386637;19;20149;-75
2023/12/30 06:52:30;;;;;;;1.10;0.40;;;;;5.30;94025.00;;;;7388807;19;20124;-76
2023/12/30 06:55:08;;;;;;;1.00;0.50;;;;;5.30;94030.00;;;;7387077;19;20143;-76
2023/12/30 06:57:55;;;;;;;1.03;0.40;;;;;5.20;94033.00;;;;7385922;19;20251;-74
2023/12/30 07:00:33;;;;;;;0.30;0.30;;;;;5.30;94030.00;;;;7387598;19;20604;-73
2023/12/30 07:03:13;;;;;;;0.40;0.40;;;;;5.40;94043.00;;;;7388467;19;21603;-74
2023/12/30 07:05:53;;;;;;;1.07;0.40;;;;;5.50;94034.00;;;;7388800;19;20121;-74
2023/12/30 07:08:27;;;;;;;4.23;3.03;;;;;5.70;94030.00;;;;7387169;19;20152;-73
2023/12/30 07:10:58;;;;;;;1.53;1.40;;;;;5.50;94045.00;;;;7388220;19;20125;-73
2023/12/30 07:13:33;;;;;;;1.20;0.63;;;;;5.60;94046.00;;;;7384737;19;20207;-74
2023/12/30 07:16:02;;;;;;;0.27;0.27;;;;;5.40;94051.00;;;;7386933;19;20608;-74
2023/12/30 07:18:37;;;;;;;1.87;0.60;;;;;5.50;94053.00;;;;7382488;19;20152;-73
2023/12/30 07:21:05;;;;;;;0.33;0.33;;;;;5.60;94043.00;;;;7382776;19;20148;-74
2023/12/30 07:23:40;;;;;;;2.00;0.57;;;;;5.40;94043.00;;;;7386069;19;20180;-73
2023/12/30 07:26:08;;;;;;;0.83;0.30;;;;;5.40;94028.00;;;;7386603;19;20144;-75
2023/12/30 07:28:49;;;;;;;1.17;0.40;;;;;5.40;94035.00;;;;7386858;19;20485;-74
2023/12/30 07:31:25;;;;;;;0.30;0.30;;;;;5.50;94034.00;;;;7386524;19;20144;-73
2023/12/30 07:34:01;;;;;;;0.40;0.30;;;;;5.50;94047.00;;;;7387280;19;20453;-73
2023/12/30 07:36:29;;;;;;;0.53;0.43;;;;;5.60;94052.00;;;;7384560;19;20818;-75
2023/12/30 07:39:10;;;;;;;0.93;0.60;;;;;5.60;94052.00;;;;7384525;19;20180;-74
2023/12/30 07:41:51;;;;;;;0.30;0.30;;;;;5.60;94057.00;;;;7384248;19;20180;-75
2023/12/30 07:44:38;;;;;;;0.30;0.30;;;;;5.60;94053.00;;;;7384249;19;20144;-76
2023/12/30 07:47:06;;;;;;;0.30;0.30;;;;;5.60;94048.00;;;;7385214;19;20149;-74
2023/12/30 07:49:43;;;;;;;1.83;0.40;;;;;5.70;94053.00;;;;7361230;19;20132;-75
2023/12/30 07:52:11;;;;;;;1.40;1.30;;;;;5.60;94055.00;;;;7385138;19;20141;-77
2023/12/30 07:54:47;;;;;;;0.80;0.80;;;;;5.70;94060.00;;;;7384908;19;20133;-74
2023/12/30 07:57:15;;;;;;;0.50;0.50;;;;;5.80;94056.00;;;;7372599;19;20159;-74
2023/12/30 07:59:50;;;;;;;1.63;0.40;;;;;5.70;94060.00;;;;7383516;19;20135;-75
2023/12/30 08:02:17;;;;;;;0.77;0.50;;;;;5.70;94060.00;;;;7385731;19;20223;-74
2023/12/30 08:04:54;;;;;;;1.50;0.80;;;;;5.70;94071.00;;;;7385649;19;20616;-75
2023/12/30 08:07:31;;;;;;;1.97;1.80;;;;;5.60;94072.00;;;;7384739;19;20140;-71
2023/12/30 08:10:07;;;;;;;0.60;0.40;;;;;5.70;94073.00;;;;7381941;19;20642;-75
2023/12/30 08:12:38;;;;;;;0.60;0.57;;;;;5.60;94070.00;;;;7383500;19;20169;-71
2023/12/30 08:15:13;;;;;;;0.30;0.30;;;;;5.70;94065.00;;;;7383228;19;20160;-73
2023/12/30 08:17:41;;;;;;;0.40;0.40;;;;;5.90;94063.00;;;;7383365;19;20145;-72
2023/12/30 08:20:23;;;;;;;1.03;0.60;;;;;6.00;94069.00;;;;7384336;19;20136;-72
2023/12/30 08:23:17;;;;;;;0.80;0.57;;;;;6.10;94072.00;;;;7384896;19;20205;-72
2023/12/30 08:25:45;;;;;;;0.67;0.40;;;;;5.80;94086.00;;;;7383084;19;20472;-72
2023/12/30 08:28:19;;;;;;;0.57;0.50;;;;;5.70;94088.00;;;;7382508;19;20125;-71
2023/12/30 08:30:46;;;;;;;0.53;0.30;;;;;5.60;94099.00;;;;7385161;19;20125;-77
2023/12/30 08:33:24;;;;;;;0.93;0.50;;;;;5.80;94093.00;;;;7385619;19;20129;-71
2023/12/30 08:35:57;;;;;;;1.93;1.00;;;;;5.70;94085.00;;;;7367841;19;20600;-74
2023/12/30 08:38:32;;;;;;;2.07;1.10;;;;;5.50;94086.00;;;;7384434;19;20152;-74
2023/12/30 08:41:10;;;;;;;1.20;1.00;;;;;5.40;94089.00;;;;7378132;19;20195;-72
2023/12/30 08:43:44;;;;;;;2.83;1.67;;;;;5.50;94082.00;;;;7369492;19;21199;-74
2023/12/30 08:46:20;;;;;;;4.40;3.00;;;;;5.50;94082.00;;;;7373915;19;20136;-72
2023/12/30 08:48:57;;;;;;;1.60;0.90;;;;;5.40;94086.00;;;;7378636;19;20490;-71
2023/12/30 08:51:29;;;;;;;1.17;0.77;;;;;5.30;94083.00;;;;7382293;19;20129;-74
2023/12/30 08:54:06;;;;;;;4.10;0.90;;;;;5.20;94081.00;;;;7380995;19;20204;-73
2023/12/30 08:56:34;;;;;;;1.77;0.80;;;;;5.10;94073.00;;;;7380781;19;20585;-71
2023/12/30 08:59:09;;;;;;;4.97;1.60;;;;;5.10;94071.00;;;;7379623;19;20502;-73
2023/12/30 09:01:39;;;;;;;1.67;1.10;;;;;5.10;94070.00;;;;7379659;19;20125;-72
2023/12/30 09:04:13;;;;;;;2.27;1.03;;;;;5.30;94074.00;;;;7390155;19;20152;-72
2023/12/30 09:06:41;;;;;;;3.07;0.80;;;;;5.50;94062.00;;;;7388463;19;23701;-73
2023/12/30 09:09:16;;;;;;;1.10;0.70;;;;;5.90;94069.00;;;;7388278;19;20504;-73
2023/12/30 09:11:45;;;;;;;2.40;0.60;;;;;6.40;94071.00;;;;7388324;19;20312;-71
2023/12/30 09:14:23;;;;;;;1.00;0.57;;;;;6.00;94085.00;;;;7386989;19;20148;-74
2023/12/30 09:17:16;;;;;;;1.07;0.77;;;;;5.90;94082.00;;;;7387606;19;20144;-73
2023/12/30 09:19:50;;;;;;;2.47;0.80;;;;;5.90;94080.00;;;;7385151;19;20152;-73
2023/12/30 09:22:18;;;;;;;1.80;0.90;;;;;6.00;94079.00;;;;7386102;19;20156;-72
2023/12/30 09:24:46;;;;;;;2.60;0.90;;;;;6.20;94078.00;;;;7385519;19;20213;-73
2023/12/30 09:27:21;;;;;;;3.87;0.77;;;;;6.20;94073.00;;;;7387950;19;21323;-80
2023/12/30 09:29:49;;;;;;;3.43;0.90;;;;;6.60;94071.00;;;;7388139;19;20165;-79
2023/12/30 09:32:24;;;;;;;2.97;0.93;;;;;6.70;94066.00;;;;7388361;19;20607;-81
2023/12/30 09:35:02;;;;;;;6.47;1.30;;;;;6.90;94075.00;;;;7387327;19;20137;-82
2023/12/30 09:37:31;;;;;;;2.73;1.00;;;;;6.80;94074.00;;;;7387421;19;20208;-78
2023/12/30 09:40:06;;;;;;;6.87;3.80;;;;;6.60;94082.00;;;;7387724;19;20148;-84
2023/12/30 09:42:50;;;;;;;10.07;5.60;;;;;6.70;94075.00;;;;7389905;19;20184;-79
2023/12/30 09:45:20;;;;;;;5.23;2.47;;;;;7.00;94070.00;;;;7388120;19;20161;-80
2023/12/30 09:47:58;;;;;;;3.80;1.53;;;;;7.20;94067.00;;;;7387474;19;20140;-79
2023/12/30 09:50:27;;;;;;;3.67;0.90;;;;;7.20;94068.00;;;;7387665;19;20510;-81
2023/12/30 09:53:01;;;;;;;2.53;1.30;;;;;7.30;94077.00;;;;7387110;19;20136;-77
2023/12/30 09:55:35;;;;;;;3.27;1.70;;;;;7.40;94074.00;;;;7384595;19;20149;-78
2023/12/30 09:58:10;;;;;;;4.67;1.40;;;;;7.60;94066.00;;;;7388294;19;20131;-75
2023/12/30 10:00:45;;;;;;;4.80;1.10;;;;;7.60;94058.00;;;;7383485;19;20204;-78
2023/12/30 10:03:23;;;;;;;2.60;0.83;;;;;7.40;94070.00;;;;7382278;19;20209;-82
2023/12/30 10:06:03;;;;;;;3.67;1.93;;;;;7.70;94053.00;;;;7386173;19;20156;-77
2023/12/30 10:08:43;;;;;;;2.30;1.10;;;;;7.70;94070.00;;;;7386503;19;20141;-79
2023/12/30 10:11:18;;;;;;;1.57;0.90;;;;;7.70;94057.00;;;;7387812;19;20656;-78
2023/12/30 10:13:55;;;;;;;3.77;1.27;;;;;7.70;94053.00;;;;7388156;19;20141;-76
2023/12/30 10:16:24;;;;;;;4.70;2.17;;;;;7.90;94060.00;;;;7385330;19;20219;-80
2023/12/30 10:19:01;;;;;;;4.13;1.45;;;;;7.80;94058.00;;;;7387449;19;20192;-79
2023/12/30 10:21:30;;;;;;;3.30;1.30;;;;;7.80;94065.00;;;;7386193;19;20624;-78
2023/12/30 10:24:06;;;;;;;4.37;2.43;;;;;7.50;94056.00;;;;7386670;19;20192;-80
2023/12/30 10:26:42;;;;;;;5.03;2.27;;;;;7.60;94064.00;;;;7387195;19;20152;-79
2023/12/30 10:29:17;;;;;;;3.47;0.80;;;;;7.60;94048.00;;;;7388700;19;20490;-79
2023/12/30 10:31:57;;;;;;;3.17;1.10;;;;;7.80;94059.00;;;;7389130;19;20145;-81
2023/12/30 10:34:32;;;;;;;3.10;1.90;;;;;7.80;94049.00;;;;7390555;19;20143;-78
2023/12/30 10:37:00;;;;;;;5.20;2.40;;;;;8.00;94049.00;;;;7385337;19;20148;-77
2023/12/30 10:39:37;;;;;;;4.30;1.80;;;;;7.50;94063.00;;;;7387199;19;20227;-77
2023/12/30 10:42:06;;;;;;;2.28;0.85;;;;;6.90;94058.00;;;;7387106;19;20183;-78
2023/12/30 10:44:42;;;;;;;3.70;1.73;;;;;6.60;94059.00;;;;7387725;19;20149;-76
2023/12/30 10:47:15;;;;;;;3.03;1.10;;;;;6.60;94059.00;;;;7386716;19;21506;-75
2023/12/30 10:50:04;;;;;;;2.17;1.00;;;;;6.60;94065.00;;;;7386459;19;20148;-78
2023/12/30 10:53:01;;;;;;;2.53;0.63;;;;;6.90;94064.00;;;;7380522;19;20148;-77
2023/12/30 10:55:34;;;;;;;1.80;0.60;;;;;7.20;94067.00;;;;7381506;19;20526;-75
2023/12/30 10:58:43;;;;;;;1.40;0.70;;;;;7.50;94061.00;;;;7374816;19;20178;-75
2023/12/30 11:01:25;;;;;;;2.20;0.80;;;;;7.70;94050.00;;;;7361009;19;20162;-76
2023/12/30 11:03:58;;;;;;;1.10;0.67;;;;;8.40;94057.00;;;;7356726;19;20181;-77
2023/12/30 11:06:46;;;;;;;2.00;0.60;;;;;9.10;94047.00;;;;7384828;19;20588;-75
2023/12/30 11:09:18;;;;;;;1.63;0.70;;;;;8.60;94057.00;;;;7380678;19;20802;-77
2023/12/30 11:11:54;;;;;;;0.85;0.60;;;;;8.90;94035.00;;;;7384840;19;20137;-76
2023/12/30 11:14:25;;;;;;;4.07;0.90;;;;;8.50;94066.00;;;;7383562;19;20600;-78
2023/12/30 11:17:00;;;;;;;1.98;0.60;;;;;8.60;94043.00;;;;7383372;19;20467;-77
2023/12/30 11:19:36;;;;;;;2.05;0.82;;;;;9.10;94058.00;;;;7383352;19;20600;-76
2023/12/30 11:22:12;;;;;;;1.60;0.75;;;;;8.70;94044.00;;;;7382485;19;20144;-78
2023/12/30 11:24:55;;;;;;;3.08;0.70;;;;;9.90;94041.00;;;;7385176;19;20187;-78
2023/12/30 11:27:32;;;;;;;2.92;0.80;;;;;10.10;94037.00;;;;7381271;19;20813;-77
2023/12/30 11:30:26;;;;;;;2.10;0.80;;;;;9.80;94034.00;;;;7386206;19;20154;-77
2023/12/30 11:32:55;;;;;;;1.88;0.98;;;;;9.60;94055.00;;;;7385062;19;20137;-79
2023/12/30 11:35:31;;;;;;;14.40;5.85;;;;;8.80;94041.00;;;;7388274;19;20144;-80
2023/12/30 11:38:14;;;;;;;5.18;3.65;;;;;9.50;94026.00;;;;7387669;19;20479;-78
2023/12/30 11:40:57;;;;;;;2.70;0.80;;;;;10.40;94026.00;;;;7384008;19;20179;-79
2023/12/30 11:43:38;;;;;;;1.25;0.80;;;;;10.70;94012.00;;;;7380138;19;20191;-79
2023/12/30 11:46:09;;;;;;;2.25;0.82;;;;;11.00;94017.00;;;;7383931;19;20177;-80
2023/12/30 11:48:47;;;;;;;1.92;1.00;;;;;12.00;94016.00;;;;7385569;19;20172;-76
2023/12/30 11:51:27;;;;;;;2.72;1.65;;;;;11.40;94017.00;;;;7382988;19;20612;-77
2023/12/30 11:54:04;;;;;;;1.60;0.80;;;;;11.20;94012.00;;;;7384823;19;20227;-76
2023/12/30 11:56:41;;;;;;;2.25;1.25;;;;;12.00;94007.00;;;;7383340;19;20259;-78
2023/12/30 11:59:17;;;;;;;2.53;1.08;;;;;12.10;93997.00;;;;7383821;19;20129;-77
2023/12/30 12:01:50;;;;;;;0.85;0.70;;;;;11.40;93992.00;;;;7384248;19;20139;-78
2023/12/30 12:04:26;;;;;;;5.13;1.85;;;;;10.80;94006.00;;;;7381529;19;20145;-77
2023/12/30 12:07:01;;;;;;;5.07;2.55;;;;;11.30;93996.00;;;;7382442;19;20596;-78
2023/12/30 12:09:37;;;;;;;1.98;1.40;;;;;10.80;93986.00;;;;7383680;19;20156;-76
2023/12/30 12:12:19;;;;;;;2.13;1.00;;;;;11.90;94007.00;;;;7383941;19;20164;-78
2023/12/30 12:14:49;;;;;;;4.18;1.70;;;;;12.00;93989.00;;;;7385094;19;20152;-77
2023/12/30 12:17:25;;;;;;;1.40;0.90;;;;;11.80;94006.00;;;;7378587;19;20502;-77
2023/12/30 12:20:01;;;;;;;9.57;3.65;;;;;11.60;93991.00;;;;7384141;19;20153;-77
2023/12/30 12:22:30;;;;;;;1.05;0.60;;;;;10.30;94015.00;;;;7381354;19;20129;-78
2023/12/30 12:25:04;;;;;;;18.95;7.95;;;;;9.60;94023.00;;;;7384201;19;20200;-79
2023/12/30 12:27:34;;;;;;;1.08;0.73;;;;;9.30;94019.00;;;;7381400;19;20152;-78
2023/12/30 12:30:11;;;;;;;8.38;3.25;;;;;8.90;94018.00;;;;7381653;19;20584;-77
2023/12/30 12:32:41;;;;;;;2.95;0.63;;;;;8.10;94026.00;;;;7382349;19;20140;-80
2023/12/30 12:35:20;;;;;;;11.88;4.88;;;;;8.10;94031.00;;;;7385720;19;20141;-76
2023/12/30 12:37:48;;;;;;;15.27;6.72;;;;;8.20;94028.00;;;;7388583;19;20133;-78
2023/12/30 12:40:22;;;;;;;19.40;6.82;;;;;7.90;94037.00;;;;7389712;19;20161;-78
2023/12/30 12:42:56;;;;;;;46.72;15.00;;;;;8.30;94025.00;;;;7387522;19;20662;-76
2023/12/30 12:45:31;;;;;;;25.00;10.18;;;;;8.20;94031.00;;;;7386553;19;20512;-77
2023/12/30 12:48:05;;;;;;;8.75;2.50;;;;;7.90;94020.00;;;;7390290;19;20133;-76
2023/12/30 12:50:42;;;;;;;3.53;1.75;;;;;7.90;94013.00;;;;7386004;19;20133;-79
2023/12/30 12:53:09;;;;;;;2.30;1.33;;;;;7.90;94009.00;;;;7388154;19;20505;-77
2023/12/30 12:55:44;;;;;;;8.65;5.45;;;;;8.00;94001.00;;;;7387789;19;20144;-77
2023/12/30 12:58:22;;;;;;;10.60;5.60;;;;;8.60;94000.00;;;;7390314;19;20157;-75
2023/12/30 13:00:57;;;;;;;2.03;0.90;;;;;8.50;94001.00;;;;7382608;19;20168;-77
2023/12/30 13:03:37;;;;;;;4.27;1.60;;;;;8.20;93995.00;;;;7386157;19;20152;-76